Time;durP1;ratioP1;P1;durP2;ratioP2;P2;SDS_P1;SDS_P2;PMS_P1;PMS_P2;Temp;Humidity;BMP_temperature;BMP_pressure;BME280_temperature;BME280_humidity;BME280_pressure;Samples;Min_cycle;Max_cycle;Signal;HPM_P1;HPM_P2
2021/04/29 00:01:57;;;;;;;0.15;0.15;;;9.20;99.90;;;;;;4997884;28;20030;-86
2021/04/29 00:04:23;;;;;;;0.10;0.10;;;9.20;99.90;;;;;;5012773;28;20524;-87
2021/04/29 00:06:49;;;;;;;0.35;0.35;;;9.30;99.90;;;;;;5010845;28;20030;-87
2021/04/29 00:09:14;;;;;;;0.20;0.20;;;9.10;99.90;;;;;;5003756;28;20092;-87
2021/04/29 00:11:40;;;;;;;0.20;0.20;;;8.90;99.90;;;;;;4998049;28;20044;-86
2021/04/29 00:14:10;;;;;;;0.25;0.25;;;8.90;99.90;;;;;;4999911;28;20014;-86
2021/04/29 00:16:37;;;;;;;0.40;0.40;;;8.90;99.90;;;;;;4994896;28;20029;-86
2021/04/29 00:19:03;;;;;;;0.40;0.40;;;8.90;99.90;;;;;;5009755;28;20113;-86
2021/04/29 00:21:29;;;;;;;0.50;0.32;;;8.80;99.90;;;;;;4997380;28;20687;-86
2021/04/29 00:23:54;;;;;;;0.30;0.30;;;8.80;99.90;;;;;;5004163;28;20042;-86
2021/04/29 00:26:21;;;;;;;1.05;1.00;;;8.80;99.90;;;;;;5003909;28;20061;-86
2021/04/29 00:28:46;;;;;;;0.13;0.13;;;8.80;99.90;;;;;;5003527;28;20022;-86
2021/04/29 00:31:12;;;;;;;1.00;0.82;;;8.70;99.90;;;;;;5002846;28;20498;-86
2021/04/29 00:33:38;;;;;;;0.10;0.10;;;8.70;99.90;;;;;;4999299;28;20397;-86
2021/04/29 00:36:04;;;;;;;0.13;0.13;;;8.90;99.90;;;;;;4991773;28;20081;-87
2021/04/29 00:38:30;;;;;;;0.57;0.57;;;8.80;99.90;;;;;;5004479;28;20026;-86
2021/04/29 00:40:57;;;;;;;0.30;0.30;;;8.80;99.90;;;;;;5009756;28;20034;-87
2021/04/29 00:43:23;;;;;;;0.32;0.32;;;8.90;99.90;;;;;;5008089;28;20277;-87
2021/04/29 00:45:49;;;;;;;0.08;0.08;;;9.00;99.90;;;;;;4997011;28;20033;-86
2021/04/29 00:48:15;;;;;;;0.10;0.10;;;8.90;99.90;;;;;;4999969;28;20368;-87
2021/04/29 00:50:41;;;;;;;0.05;0.05;;;8.80;99.90;;;;;;5000751;28;20034;-87
2021/04/29 00:53:08;;;;;;;0.10;0.10;;;8.70;99.90;;;;;;5011521;28;20022;-87
2021/04/29 00:55:34;;;;;;;0.20;0.20;;;8.70;99.90;;;;;;4997450;28;20030;-87
2021/04/29 00:58:01;;;;;;;1.13;0.50;;;8.60;99.90;;;;;;5005737;28;20566;-87
2021/04/29 01:00:27;;;;;;;;;;;8.60;99.90;;;;;;5011295;28;20030;-87
2021/04/29 01:02:59;;;;;;;0.03;0.03;;;8.70;99.90;;;;;;5007028;28;20380;-86
2021/04/29 01:05:31;;;;;;;0.22;0.22;;;8.60;99.90;;;;;;4994263;28;20273;-87
2021/04/29 01:08:02;;;;;;;0.10;0.10;;;8.50;99.90;;;;;;5005226;28;20547;-87
2021/04/29 01:10:42;;;;;;;0.30;0.30;;;8.50;99.90;;;;;;5009543;28;20026;-85
2021/04/29 01:13:13;;;;;;;0.40;0.40;;;8.60;99.90;;;;;;4997656;28;20113;-87
2021/04/29 01:15:43;;;;;;;0.30;0.30;;;8.50;99.90;;;;;;5010792;28;20026;-86
2021/04/29 01:18:13;;;;;;;1.70;0.43;;;8.40;99.90;;;;;;5011021;28;20033;-86
2021/04/29 01:20:47;;;;;;;0.10;0.10;;;8.50;99.90;;;;;;5005488;28;20675;-86
2021/04/29 01:23:33;;;;;;;0.10;0.10;;;8.30;99.90;;;;;;5011049;28;20102;-87
2021/04/29 01:26:02;;;;;;;0.82;0.82;;;8.40;99.90;;;;;;5004750;28;20045;-87
2021/04/29 01:28:29;;;;;;;0.20;0.20;;;8.40;99.90;;;;;;5019238;28;20040;-87
2021/04/29 01:30:57;;;;;;;0.20;0.20;;;8.50;99.90;;;;;;4998262;28;20060;-87
2021/04/29 01:33:24;;;;;;;0.10;0.10;;;8.40;99.90;;;;;;5008582;28;20041;-87
2021/04/29 01:35:51;;;;;;;0.52;0.52;;;8.50;99.90;;;;;;5001072;28;20026;-87
2021/04/29 01:38:17;;;;;;;0.00;0.00;;;8.70;99.90;;;;;;5003313;28;20022;-87
2021/04/29 01:40:44;;;;;;;0.30;0.30;;;8.80;99.90;;;;;;5001419;28;20030;-87
2021/04/29 01:43:09;;;;;;;0.10;0.10;;;8.80;99.90;;;;;;5002581;28;20147;-87
2021/04/29 01:45:36;;;;;;;0.20;0.20;;;8.90;99.90;;;;;;5002581;28;20724;-86
2021/04/29 01:48:03;;;;;;;0.30;0.30;;;9.00;99.90;;;;;;4996487;28;20093;-86
2021/04/29 01:50:29;;;;;;;0.20;0.20;;;9.00;99.90;;;;;;4999166;28;20030;-86
2021/04/29 01:52:56;;;;;;;0.00;0.00;;;9.10;99.90;;;;;;4999519;28;20026;-86
2021/04/29 01:55:23;;;;;;;0.22;0.22;;;9.10;99.90;;;;;;5002083;28;20065;-86
2021/04/29 01:57:51;;;;;;;;;;;9.10;99.90;;;;;;5002789;28;20057;-86
2021/04/29 02:00:18;;;;;;;0.10;0.10;;;9.20;99.90;;;;;;5006968;28;19910;-85
2021/04/29 02:02:44;;;;;;;0.10;0.10;;;9.20;99.90;;;;;;5001283;28;20254;-86
2021/04/29 02:05:11;;;;;;;0.10;0.10;;;9.20;99.90;;;;;;4999720;28;20037;-86
2021/04/29 02:07:37;;;;;;;0.10;0.10;;;9.20;99.90;;;;;;5002609;28;20013;-86
2021/04/29 02:10:03;;;;;;;0.05;0.05;;;9.20;99.90;;;;;;5001400;28;20026;-86
2021/04/29 02:12:35;;;;;;;0.38;0.30;;;9.10;99.90;;;;;;4998751;28;20022;-85
2021/04/29 02:15:05;;;;;;;0.17;0.15;;;9.00;99.90;;;;;;4998459;28;20812;-86
2021/04/29 02:17:40;;;;;;;0.00;0.00;;;8.80;99.90;;;;;;5002614;28;20032;-86
2021/04/29 02:20:07;;;;;;;0.15;0.15;;;8.80;99.90;;;;;;5002253;28;20332;-86
2021/04/29 02:22:36;;;;;;;0.10;0.10;;;8.90;99.90;;;;;;5002041;28;20092;-87
2021/04/29 02:25:04;;;;;;;0.05;0.05;;;8.80;99.90;;;;;;4994669;28;20038;-86
2021/04/29 02:27:32;;;;;;;0.20;0.20;;;8.90;99.90;;;;;;5006397;28;20030;-87
2021/04/29 02:29:59;;;;;;;0.10;0.10;;;8.90;99.90;;;;;;5006838;28;20022;-86
2021/04/29 02:32:25;;;;;;;0.15;0.13;;;9.00;99.90;;;;;;5008196;28;20080;-86
2021/04/29 02:34:51;;;;;;;0.10;0.10;;;9.00;99.90;;;;;;4996532;28;20031;-87
2021/04/29 02:37:17;;;;;;;0.10;0.10;;;8.70;99.90;;;;;;4999319;28;20025;-86
2021/04/29 02:39:43;;;;;;;0.10;0.10;;;8.70;99.90;;;;;;4999020;28;20023;-86
2021/04/29 02:42:12;;;;;;;0.10;0.10;;;8.60;99.90;;;;;;5004296;28;20034;-86
2021/04/29 02:44:38;;;;;;;0.00;0.00;;;8.60;99.90;;;;;;4999545;28;20034;-87
2021/04/29 02:47:05;;;;;;;0.10;0.10;;;8.70;99.90;;;;;;4997307;28;20036;-87
2021/04/29 02:49:31;;;;;;;0.35;0.35;;;8.50;99.90;;;;;;4996190;28;20025;-86
2021/04/29 02:51:59;;;;;;;0.10;0.10;;;8.60;99.90;;;;;;4995339;28;20785;-86
2021/04/29 02:54:24;;;;;;;;;;;8.60;99.90;;;;;;4995480;28;20113;-87
2021/04/29 02:56:50;;;;;;;0.10;0.10;;;8.60;99.90;;;;;;4996264;28;20024;-87
2021/04/29 02:59:16;;;;;;;0.10;0.10;;;8.60;99.90;;;;;;5006889;28;20033;-87
2021/04/29 03:01:42;;;;;;;0.10;0.10;;;8.50;99.90;;;;;;5002428;28;20060;-86
2021/04/29 03:04:09;;;;;;;0.28;0.28;;;8.60;99.90;;;;;;4992822;28;20029;-86
2021/04/29 03:06:35;;;;;;;0.03;0.03;;;8.60;99.90;;;;;;5008558;28;20033;-86
2021/04/29 03:09:01;;;;;;;0.10;0.10;;;8.50;99.90;;;;;;5009040;28;20620;-86
2021/04/29 03:11:27;;;;;;;0.03;0.03;;;8.40;99.90;;;;;;4994306;28;20058;-87
2021/04/29 03:13:53;;;;;;;0.40;0.40;;;8.30;99.90;;;;;;4998740;28;20393;-87
2021/04/29 03:16:19;;;;;;;0.55;0.55;;;8.20;99.90;;;;;;5003646;28;20032;-87
2021/04/29 03:18:44;;;;;;;0.20;0.20;;;8.20;99.90;;;;;;4991464;28;20137;-87
2021/04/29 03:21:11;;;;;;;0.22;0.22;;;8.20;99.90;;;;;;5005105;28;20056;-86
2021/04/29 03:23:37;;;;;;;0.20;0.20;;;8.10;99.90;;;;;;4990008;28;20030;-87
2021/04/29 03:26:03;;;;;;;0.10;0.10;;;8.10;99.90;;;;;;4988126;28;20054;-86
2021/04/29 03:28:29;;;;;;;0.35;0.35;;;8.20;99.90;;;;;;5003096;28;20293;-87
2021/04/29 03:30:56;;;;;;;0.17;0.17;;;8.40;99.90;;;;;;5006902;28;20577;-86
2021/04/29 03:33:22;;;;;;;0.10;0.10;;;8.40;99.90;;;;;;5004808;28;20109;-86
2021/04/29 03:35:48;;;;;;;0.10;0.10;;;8.50;99.90;;;;;;4997388;28;20167;-86
2021/04/29 03:38:13;;;;;;;0.00;0.00;;;8.40;99.90;;;;;;5000501;28;20101;-86
2021/04/29 03:40:39;;;;;;;0.00;0.00;;;8.20;99.90;;;;;;5003751;28;20212;-86
2021/04/29 03:43:05;;;;;;;0.10;0.10;;;8.20;99.90;;;;;;5008975;28;20068;-86
2021/04/29 03:45:32;;;;;;;0.00;0.00;;;8.40;99.90;;;;;;5009193;28;20029;-86
2021/04/29 03:47:57;;;;;;;0.30;0.30;;;8.40;99.90;;;;;;5002044;28;20049;-86
2021/04/29 03:50:23;;;;;;;0.03;0.03;;;8.40;99.90;;;;;;5004792;28;20955;-86
2021/04/29 03:52:49;;;;;;;0.30;0.30;;;8.40;99.90;;;;;;5000341;28;20022;-87
2021/04/29 03:55:15;;;;;;;0.10;0.10;;;8.30;99.90;;;;;;5002524;28;20803;-86
2021/04/29 03:57:42;;;;;;;0.10;0.10;;;8.20;99.90;;;;;;4989652;28;20081;-86
2021/04/29 04:00:08;;;;;;;0.17;0.17;;;7.90;99.90;;;;;;4991321;28;20034;-86
2021/04/29 04:02:35;;;;;;;0.28;0.28;;;7.70;99.90;;;;;;5006253;28;20026;-87
2021/04/29 04:05:01;;;;;;;0.08;0.08;;;7.60;99.90;;;;;;4999416;28;20030;-86
2021/04/29 04:07:26;;;;;;;0.15;0.15;;;7.50;99.90;;;;;;5004605;28;20025;-86
2021/04/29 04:09:52;;;;;;;0.70;0.25;;;7.50;99.90;;;;;;4999730;28;20038;-86
2021/04/29 04:12:18;;;;;;;0.03;0.03;;;7.50;99.90;;;;;;4992410;28;20080;-86
2021/04/29 04:14:43;;;;;;;0.30;0.30;;;7.50;99.90;;;;;;4991245;28;20049;-85
2021/04/29 04:17:09;;;;;;;0.00;0.00;;;7.60;99.90;;;;;;5003568;28;20022;-85
2021/04/29 04:19:35;;;;;;;0.20;0.15;;;7.70;99.90;;;;;;5000521;28;20117;-86
2021/04/29 04:22:01;;;;;;;0.47;0.45;;;7.70;99.90;;;;;;4994151;28;20105;-86
2021/04/29 04:24:26;;;;;;;0.45;0.38;;;7.60;99.90;;;;;;4988606;28;20031;-86
2021/04/29 04:26:52;;;;;;;0.10;0.10;;;7.50;99.90;;;;;;5000123;28;20061;-85
2021/04/29 04:29:18;;;;;;;0.13;0.13;;;7.60;99.90;;;;;;5008257;28;20030;-85
2021/04/29 04:31:43;;;;;;;0.38;0.35;;;7.70;99.90;;;;;;5004684;28;20037;-87
2021/04/29 04:34:09;;;;;;;0.00;0.00;;;7.80;99.90;;;;;;5005367;28;20033;-86
2021/04/29 04:36:35;;;;;;;0.00;0.00;;;7.90;99.90;;;;;;5011269;28;20645;-86
2021/04/29 04:39:03;;;;;;;0.10;0.10;;;8.00;99.90;;;;;;5009869;28;20026;-86
2021/04/29 04:41:29;;;;;;;0.32;0.20;;;8.10;99.90;;;;;;5010460;28;20054;-85
2021/04/29 04:43:55;;;;;;;0.30;0.30;;;8.10;99.90;;;;;;5004335;28;20072;-87
2021/04/29 04:46:21;;;;;;;0.20;0.20;;;8.10;99.90;;;;;;5004246;28;20026;-89
2021/04/29 04:48:47;;;;;;;0.10;0.10;;;8.10;99.90;;;;;;5011188;28;20030;-89
2021/04/29 04:51:12;;;;;;;0.00;0.00;;;8.00;99.90;;;;;;5006127;28;20038;-89
2021/04/29 04:53:40;;;;;;;0.10;0.10;;;7.90;99.90;;;;;;5010682;28;20026;-89
2021/04/29 04:56:06;;;;;;;0.10;0.10;;;7.90;99.90;;;;;;5011575;28;20117;-89
2021/04/29 04:58:32;;;;;;;0.00;0.00;;;7.90;99.90;;;;;;5004587;28;20112;-88
2021/04/29 05:00:57;;;;;;;0.20;0.20;;;7.90;99.90;;;;;;5011593;28;20465;-88
2021/04/29 05:03:23;;;;;;;0.28;0.28;;;8.00;99.90;;;;;;5006088;28;20034;-89
2021/04/29 05:05:49;;;;;;;0.22;0.22;;;8.00;99.90;;;;;;5009493;28;20018;-88
2021/04/29 05:08:15;;;;;;;0.40;0.40;;;8.00;99.90;;;;;;5006059;28;20038;-87
2021/04/29 05:10:41;;;;;;;0.28;0.28;;;8.20;99.90;;;;;;5006057;28;20028;-89
2021/04/29 05:13:07;;;;;;;0.10;0.10;;;8.30;99.90;;;;;;5026620;28;20113;-89
2021/04/29 05:15:34;;;;;;;0.45;0.45;;;8.50;99.90;;;;;;5010480;28;20116;-89
2021/04/29 05:18:00;;;;;;;0.43;0.43;;;8.60;99.90;;;;;;5008641;28;20029;-88
2021/04/29 05:20:26;;;;;;;0.20;0.20;;;8.60;99.90;;;;;;5010711;28;20037;-89
2021/04/29 05:22:52;;;;;;;0.10;0.10;;;8.60;99.90;;;;;;5009951;28;20044;-83
2021/04/29 05:25:19;;;;;;;0.22;0.22;;;8.40;99.90;;;;;;5008589;28;20046;-83
2021/04/29 05:27:45;;;;;;;0.28;0.28;;;8.40;99.90;;;;;;4994342;28;20413;-87
2021/04/29 05:30:11;;;;;;;0.10;0.10;;;8.50;99.90;;;;;;5009485;28;20116;-87
2021/04/29 05:32:37;;;;;;;0.10;0.10;;;8.40;99.90;;;;;;5010258;28;20033;-86
2021/04/29 05:35:04;;;;;;;0.10;0.10;;;8.50;99.90;;;;;;4997397;28;20037;-85
2021/04/29 05:37:30;;;;;;;0.40;0.40;;;8.60;99.90;;;;;;4998499;28;20025;-86
2021/04/29 05:39:56;;;;;;;8.90;3.47;;;8.60;99.90;;;;;;5008047;28;20397;-86
2021/04/29 05:42:21;;;;;;;5.40;4.43;;;8.80;99.90;;;;;;5009994;28;20496;-86
2021/04/29 05:44:47;;;;;;;10.88;4.30;;;9.00;99.90;;;;;;5001944;28;20032;-87
2021/04/29 05:47:13;;;;;;;5.82;3.53;;;9.10;99.90;;;;;;5005171;28;20081;-85
2021/04/29 05:49:42;;;;;;;2.30;2.15;;;9.20;99.90;;;;;;4998363;28;20026;-89
2021/04/29 05:52:07;;;;;;;8.50;5.78;;;9.10;99.90;;;;;;4997168;28;20733;-88
2021/04/29 05:54:34;;;;;;;5.90;4.00;;;9.10;99.90;;;;;;4995741;28;20022;-88
2021/04/29 05:57:01;;;;;;;2.60;2.40;;;9.00;99.90;;;;;;5012010;28;20032;-87
2021/04/29 05:59:26;;;;;;;0.70;0.70;;;9.10;99.90;;;;;;5001793;28;20664;-86
2021/04/29 06:01:52;;;;;;;0.10;0.10;;;9.20;99.90;;;;;;5001419;28;20035;-87
2021/04/29 06:04:18;;;;;;;1.08;0.93;;;9.30;99.90;;;;;;5016704;28;20034;-85
2021/04/29 06:06:45;;;;;;;0.05;0.05;;;9.60;99.90;;;;;;5000554;28;20044;-86
2021/04/29 06:09:11;;;;;;;0.10;0.10;;;9.70;99.90;;;;;;4995661;28;20023;-85
2021/04/29 06:11:37;;;;;;;0.22;0.22;;;9.60;99.90;;;;;;5003574;28;20764;-85
2021/04/29 06:14:03;;;;;;;2.00;1.35;;;9.60;99.90;;;;;;5000060;28;20132;-86
2021/04/29 06:16:29;;;;;;;0.35;0.35;;;9.60;99.90;;;;;;4997831;28;20036;-86
2021/04/29 06:18:55;;;;;;;1.45;0.65;;;9.50;99.90;;;;;;4993046;28;20022;-86
2021/04/29 06:21:21;;;;;;;0.10;0.10;;;9.60;99.90;;;;;;5001992;28;20034;-86
2021/04/29 06:23:47;;;;;;;0.10;0.10;;;9.70;99.90;;;;;;4999600;28;20030;-87
2021/04/29 06:26:12;;;;;;;0.10;0.10;;;9.80;99.90;;;;;;4990798;28;20076;-87
2021/04/29 06:28:38;;;;;;;0.10;0.10;;;9.80;99.90;;;;;;4998077;28;20022;-86
2021/04/29 06:31:04;;;;;;;0.00;0.00;;;9.70;99.90;;;;;;4994352;28;20022;-86
2021/04/29 06:33:30;;;;;;;0.20;0.20;;;9.80;99.90;;;;;;4997158;28;20022;-87
2021/04/29 06:35:56;;;;;;;0.05;0.05;;;9.70;99.90;;;;;;5014624;28;20038;-88
2021/04/29 06:38:23;;;;;;;0.32;0.32;;;10.00;99.90;;;;;;4992323;28;20037;-85
2021/04/29 06:40:49;;;;;;;0.20;0.20;;;10.00;99.90;;;;;;5004636;28;20504;-86
2021/04/29 06:43:15;;;;;;;0.43;0.43;;;10.60;99.90;;;;;;4995974;28;20045;-86
2021/04/29 06:45:41;;;;;;;0.10;0.10;;;10.80;99.90;;;;;;4995828;28;20029;-86
2021/04/29 06:48:10;;;;;;;0.32;0.32;;;11.00;99.90;;;;;;5003577;28;20038;-85
2021/04/29 06:50:38;;;;;;;0.10;0.10;;;11.20;99.90;;;;;;4998164;28;20030;-85
2021/04/29 06:53:04;;;;;;;0.75;0.68;;;10.80;99.90;;;;;;4998704;28;20014;-85
2021/04/29 06:55:31;;;;;;;0.20;0.20;;;10.40;99.90;;;;;;4997787;28;20038;-84
2021/04/29 06:57:57;;;;;;;0.15;0.15;;;9.90;99.90;;;;;;5000428;28;20041;-85
2021/04/29 07:00:26;;;;;;;1.27;0.38;;;9.50;99.90;;;;;;4997468;28;20038;-86
2021/04/29 07:02:56;;;;;;;0.17;0.17;;;9.60;99.90;;;;;;4995996;28;20034;-86
2021/04/29 07:05:23;;;;;;;0.22;0.22;;;9.60;99.90;;;;;;4995704;28;20431;-84
2021/04/29 07:07:55;;;;;;;0.10;0.10;;;9.60;99.90;;;;;;4998186;28;20056;-84
2021/04/29 07:10:23;;;;;;;1.23;0.47;;;9.70;99.90;;;;;;5000577;28;20122;-84
2021/04/29 07:12:49;;;;;;;1.27;0.60;;;9.80;99.90;;;;;;4995201;28;20029;-84
2021/04/29 07:15:16;;;;;;;0.20;0.20;;;9.70;99.90;;;;;;4989670;28;20996;-85
2021/04/29 07:17:43;;;;;;;0.10;0.10;;;9.80;99.90;;;;;;4989020;28;20025;-85
2021/04/29 07:20:11;;;;;;;0.10;0.10;;;9.90;99.90;;;;;;4996719;28;20769;-85
2021/04/29 07:22:39;;;;;;;0.00;0.00;;;10.10;99.90;;;;;;4996449;28;20050;-85
2021/04/29 07:25:10;;;;;;;0.10;0.10;;;10.20;99.90;;;;;;4997888;28;20123;-85
2021/04/29 07:27:39;;;;;;;0.30;0.30;;;10.20;99.90;;;;;;5003544;28;20034;-85
2021/04/29 07:30:12;;;;;;;0.30;0.30;;;10.10;99.90;;;;;;5012295;28;20041;-86
2021/04/29 07:32:38;;;;;;;0.57;0.57;;;10.00;99.90;;;;;;4997556;28;20540;-85
2021/04/29 07:35:05;;;;;;;0.20;0.20;;;10.20;99.90;;;;;;4998666;28;20057;-86
2021/04/29 07:37:30;;;;;;;2.45;0.85;;;10.30;99.90;;;;;;4999293;28;20819;-85
2021/04/29 07:39:57;;;;;;;0.32;0.22;;;10.30;99.90;;;;;;5007203;28;20060;-85
2021/04/29 07:42:24;;;;;;;0.35;0.35;;;10.20;99.90;;;;;;4994595;28;20031;-85
2021/04/29 07:44:50;;;;;;;0.20;0.20;;;10.10;99.90;;;;;;4999026;28;20088;-85
2021/04/29 07:47:16;;;;;;;0.00;0.00;;;10.10;99.90;;;;;;5003186;28;20033;-85
2021/04/29 07:49:42;;;;;;;0.15;0.15;;;9.90;99.90;;;;;;5015930;28;20034;-85
2021/04/29 07:52:09;;;;;;;0.80;0.57;;;10.00;99.90;;;;;;4996841;28;20041;-85
2021/04/29 07:54:35;;;;;;;0.10;0.10;;;10.20;99.90;;;;;;5015630;28;20033;-85
2021/04/29 07:57:02;;;;;;;0.30;0.30;;;10.40;99.90;;;;;;5002940;28;20026;-84
2021/04/29 07:59:29;;;;;;;0.10;0.10;;;10.40;99.90;;;;;;4998068;28;20777;-85
2021/04/29 08:01:58;;;;;;;0.70;0.70;;;10.70;99.90;;;;;;5001542;28;20032;-85
2021/04/29 08:04:24;;;;;;;0.10;0.10;;;11.20;99.90;;;;;;5004268;28;20030;-86
2021/04/29 08:06:50;;;;;;;0.10;0.10;;;11.30;99.90;;;;;;5006515;28;20037;-85
2021/04/29 08:09:16;;;;;;;0.10;0.10;;;11.70;99.90;;;;;;5001117;28;20061;-85
2021/04/29 08:11:42;;;;;;;0.03;0.03;;;11.80;99.90;;;;;;5004302;28;20168;-85
2021/04/29 08:14:08;;;;;;;0.30;0.30;;;11.60;99.90;;;;;;5003719;28;20014;-86
2021/04/29 08:16:39;;;;;;;0.13;0.13;;;11.40;99.90;;;;;;5006553;28;20022;-86
2021/04/29 08:19:05;;;;;;;0.45;0.45;;;11.10;99.90;;;;;;5004006;28;20145;-86
2021/04/29 08:21:30;;;;;;;0.10;0.10;;;11.20;99.90;;;;;;5001925;28;20101;-86
2021/04/29 08:23:57;;;;;;;0.20;0.20;;;11.30;99.90;;;;;;5002620;28;20033;-86
2021/04/29 08:26:24;;;;;;;;;;;11.20;99.90;;;;;;5003271;28;20129;-86
2021/04/29 08:29:05;;;;;;;0.20;0.20;;;11.30;99.90;;;;;;5004902;28;19967;-86
2021/04/29 08:31:32;;;;;;;0.17;0.17;;;11.50;99.90;;;;;;5018551;28;20959;-86
2021/04/29 08:33:59;;;;;;;0.00;0.00;;;11.40;99.90;;;;;;5000258;28;20018;-86
2021/04/29 08:36:29;;;;;;;0.10;0.10;;;11.70;99.90;;;;;;5006612;28;20125;-86
2021/04/29 08:38:55;;;;;;;0.10;0.10;;;11.60;99.90;;;;;;5000271;28;20805;-85
2021/04/29 08:41:22;;;;;;;0.10;0.10;;;11.60;99.90;;;;;;5002286;28;20517;-86
2021/04/29 08:43:48;;;;;;;0.13;0.13;;;11.40;99.90;;;;;;4999172;28;20031;-86
2021/04/29 08:46:14;;;;;;;0.00;0.00;;;11.50;99.90;;;;;;5001148;28;20105;-86
2021/04/29 08:48:40;;;;;;;0.10;0.10;;;11.60;99.90;;;;;;5002019;28;20026;-86
2021/04/29 08:51:07;;;;;;;0.10;0.10;;;11.20;99.90;;;;;;5002938;28;20516;-86
2021/04/29 08:53:33;;;;;;;0.40;0.40;;;11.20;99.90;;;;;;5011782;28;20452;-86
2021/04/29 08:55:58;;;;;;;0.05;0.05;;;11.20;99.90;;;;;;4992263;28;20042;-86
2021/04/29 08:58:24;;;;;;;0.00;0.00;;;11.00;99.90;;;;;;4993720;28;20072;-86
2021/04/29 09:01:09;;;;;;;0.10;0.10;;;11.10;99.90;;;;;;4998760;28;20099;-86
2021/04/29 09:03:36;;;;;;;41.20;1.10;;;11.20;99.90;;;;;;4999439;28;20030;-86
2021/04/29 09:06:06;;;;;;;0.40;0.40;;;11.20;99.90;;;;;;4999752;28;20548;-86
2021/04/29 09:08:34;;;;;;;0.10;0.10;;;11.00;99.90;;;;;;5021068;28;20038;-86
2021/04/29 09:11:15;;;;;;;0.45;0.45;;;10.80;99.90;;;;;;5003579;28;20029;-86
2021/04/29 09:13:54;;;;;;;0.30;0.30;;;10.60;99.90;;;;;;5006658;28;20034;-85
2021/04/29 09:16:21;;;;;;;0.20;0.20;;;10.40;99.90;;;;;;5008005;28;20033;-85
2021/04/29 09:18:48;;;;;;;0.10;0.10;;;10.30;99.90;;;;;;5002081;28;20022;-86
2021/04/29 09:21:15;;;;;;;0.10;0.10;;;10.40;99.90;;;;;;5001980;28;20010;-85
2021/04/29 09:23:48;;;;;;;0.40;0.40;;;10.20;99.90;;;;;;5008578;28;20030;-86
2021/04/29 09:26:16;;;;;;;0.05;0.05;;;10.10;99.90;;;;;;5003852;28;20446;-86
2021/04/29 09:28:52;;;;;;;0.20;0.20;;;9.90;99.90;;;;;;5001964;28;20490;-86
2021/04/29 09:31:19;;;;;;;0.20;0.20;;;9.70;99.90;;;;;;5003504;28;20478;-87
2021/04/29 09:33:50;;;;;;;0.20;0.20;;;9.70;99.90;;;;;;5019498;28;20105;-87
2021/04/29 09:36:27;;;;;;;0.00;0.00;;;9.50;99.90;;;;;;4998722;28;20019;-87
2021/04/29 09:38:54;;;;;;;0.32;0.32;;;9.50;99.90;;;;;;5009259;28;20386;-87
2021/04/29 09:41:27;;;;;;;0.65;0.52;;;9.80;99.90;;;;;;5003632;28;20034;-87
2021/04/29 09:43:59;;;;;;;0.95;0.95;;;9.70;99.90;;;;;;5004711;28;20506;-87
2021/04/29 09:46:37;;;;;;;0.32;0.32;;;9.80;99.90;;;;;;5007183;28;20030;-86
2021/04/29 09:49:27;;;;;;;0.57;0.57;;;9.90;99.90;;;;;;5004532;28;20049;-86
2021/04/29 09:51:55;;;;;;;1.25;0.65;;;10.20;99.90;;;;;;5002078;28;20022;-86
2021/04/29 09:54:40;;;;;;;1.55;0.80;;;10.30;99.90;;;;;;4999908;28;20803;-86
2021/04/29 09:57:08;;;;;;;0.17;0.17;;;10.30;99.90;;;;;;4999959;28;20026;-86
2021/04/29 09:59:44;;;;;;;0.20;0.20;;;10.40;99.90;;;;;;5016973;28;20022;-86
2021/04/29 10:02:12;;;;;;;0.20;0.20;;;10.50;99.90;;;;;;4994856;28;20113;-86
2021/04/29 10:04:40;;;;;;;0.17;0.17;;;10.80;99.90;;;;;;5008796;28;20033;-86
2021/04/29 10:07:08;;;;;;;0.45;0.28;;;10.80;99.90;;;;;;5004816;28;20095;-86
2021/04/29 10:09:35;;;;;;;0.03;0.03;;;11.00;99.90;;;;;;5025379;28;20034;-86
2021/04/29 10:12:09;;;;;;;0.20;0.20;;;11.10;99.90;;;;;;5008656;28;20442;-86
2021/04/29 10:14:55;;;;;;;0.28;0.28;;;11.30;99.90;;;;;;5003429;28;20525;-86
2021/04/29 10:17:24;;;;;;;;;;;11.50;99.90;;;;;;5006436;28;20034;-86
2021/04/29 10:19:55;;;;;;;0.20;0.20;;;11.00;99.90;;;;;;5003264;28;19909;-86
2021/04/29 10:22:25;;;;;;;0.43;0.35;;;11.20;99.90;;;;;;4993558;28;20040;-86
2021/04/29 10:24:50;;;;;;;0.20;0.20;;;11.50;99.90;;;;;;5007595;28;20054;-86
2021/04/29 10:27:27;;;;;;;0.15;0.15;;;11.40;99.90;;;;;;5009946;28;20155;-87
2021/04/29 10:30:09;;;;;;;0.20;0.20;;;11.50;99.90;;;;;;5002428;28;20030;-87
2021/04/29 10:32:36;;;;;;;0.20;0.20;;;11.40;99.90;;;;;;4994485;28;20088;-86
2021/04/29 10:35:17;;;;;;;0.13;0.13;;;11.50;99.90;;;;;;5003336;28;20116;-87
2021/04/29 10:37:58;;;;;;;0.00;0.00;;;12.00;99.90;;;;;;5005999;28;20030;-87
2021/04/29 10:40:38;;;;;;;0.10;0.10;;;11.50;99.90;;;;;;5004263;28;20109;-86
2021/04/29 10:43:08;;;;;;;0.08;0.08;;;11.60;99.90;;;;;;5000532;28;20780;-87
2021/04/29 10:45:34;;;;;;;0.82;0.50;;;11.60;99.90;;;;;;5016637;28;20065;-86
2021/04/29 10:48:14;;;;;;;0.20;0.20;;;11.80;99.90;;;;;;5005733;28;20056;-86
2021/04/29 10:50:48;;;;;;;0.10;0.10;;;11.90;99.90;;;;;;5017311;28;20730;-85
2021/04/29 10:53:29;;;;;;;0.00;0.00;;;11.70;99.90;;;;;;4997213;28;20030;-85
2021/04/29 10:56:18;;;;;;;0.10;0.10;;;12.20;99.90;;;;;;4996826;28;20041;-84
2021/04/29 10:58:45;;;;;;;0.10;0.10;;;12.00;99.90;;;;;;5000314;28;20038;-84
2021/04/29 11:01:14;;;;;;;0.10;0.10;;;13.30;99.90;;;;;;4994608;28;20041;-84
2021/04/29 11:03:42;;;;;;;0.10;0.10;;;13.30;99.90;;;;;;5000743;28;20030;-85
2021/04/29 11:06:22;;;;;;;0.10;0.10;;;12.30;99.90;;;;;;4996543;28;20513;-84
2021/04/29 11:08:51;;;;;;;0.10;0.10;;;12.40;99.90;;;;;;5003566;28;20698;-83
2021/04/29 11:11:24;;;;;;;0.10;0.10;;;12.50;99.90;;;;;;5006560;28;20049;-85
2021/04/29 11:14:03;;;;;;;0.00;0.00;;;13.20;99.90;;;;;;5003302;28;20022;-85
2021/04/29 11:16:41;;;;;;;0.10;0.10;;;12.60;99.90;;;;;;4993096;28;20698;-85
2021/04/29 11:19:07;;;;;;;0.10;0.10;;;12.20;99.90;;;;;;5004462;28;20022;-85
2021/04/29 11:21:32;;;;;;;0.00;0.00;;;12.00;99.90;;;;;;5000704;28;20083;-85
2021/04/29 11:24:00;;;;;;;0.10;0.10;;;11.80;99.90;;;;;;4992689;28;20026;-84
2021/04/29 11:26:33;;;;;;;0.00;0.00;;;12.20;99.90;;;;;;4995117;28;20065;-86
2021/04/29 11:29:00;;;;;;;0.00;0.00;;;12.90;99.90;;;;;;5002197;28;20108;-85
2021/04/29 11:31:26;;;;;;;0.10;0.10;;;13.10;99.90;;;;;;4997428;28;20034;-86
2021/04/29 11:33:52;;;;;;;0.20;0.20;;;13.10;99.90;;;;;;4998685;28;20104;-84
2021/04/29 11:36:26;;;;;;;0.20;0.20;;;13.20;99.90;;;;;;4992450;28;20033;-84
2021/04/29 11:39:04;;;;;;;0.10;0.10;;;13.20;99.90;;;;;;4999196;28;20038;-84
2021/04/29 11:41:31;;;;;;;0.00;0.00;;;13.20;99.90;;;;;;5016777;28;20113;-84
2021/04/29 11:44:06;;;;;;;0.08;0.08;;;12.90;99.90;;;;;;5002120;28;20101;-84
2021/04/29 11:46:34;;;;;;;0.10;0.10;;;13.20;99.90;;;;;;5002298;28;20800;-83
2021/04/29 11:49:05;;;;;;;0.10;0.10;;;13.60;99.90;;;;;;5003531;28;20140;-84
2021/04/29 11:51:50;;;;;;;0.20;0.20;;;14.00;99.90;;;;;;5020010;28;20053;-83
2021/04/29 11:54:17;;;;;;;0.20;0.20;;;14.30;99.90;;;;;;5003230;28;20962;-84
2021/04/29 11:56:49;;;;;;;0.00;0.00;;;14.40;99.90;;;;;;5004236;28;20022;-84
2021/04/29 11:59:16;;;;;;;0.10;0.10;;;14.20;99.90;;;;;;5006125;28;20018;-83
2021/04/29 12:01:55;;;;;;;0.10;0.10;;;15.10;99.90;;;;;;5004954;28;20048;-84
2021/04/29 12:04:23;;;;;;;0.20;0.20;;;16.10;99.90;;;;;;5008616;28;20065;-84
2021/04/29 12:06:51;;;;;;;0.60;0.60;;;16.30;99.90;;;;;;5008925;28;20026;-83
2021/04/29 12:09:21;;;;;;;0.10;0.10;;;15.70;99.90;;;;;;5001777;28;20038;-83
2021/04/29 12:11:48;;;;;;;0.10;0.10;;;14.50;99.90;;;;;;5001575;28;20076;-84
2021/04/29 12:14:23;;;;;;;0.10;0.10;;;14.00;99.90;;;;;;5009842;28;20030;-84
2021/04/29 12:16:59;;;;;;;0.13;0.13;;;13.70;99.90;;;;;;5003924;28;20026;-84
2021/04/29 12:19:28;;;;;;;0.10;0.10;;;13.10;99.90;;;;;;5008026;28;20033;-83
2021/04/29 12:21:54;;;;;;;0.20;0.20;;;12.80;99.90;;;;;;5006396;28;20046;-84
2021/04/29 12:24:21;;;;;;;0.15;0.15;;;13.30;99.90;;;;;;5001820;28;20065;-83
2021/04/29 12:26:47;;;;;;;0.10;0.10;;;13.70;99.90;;;;;;5006927;28;20131;-84
2021/04/29 12:29:22;;;;;;;0.17;0.17;;;14.00;99.90;;;;;;5001027;28;20100;-83
2021/04/29 12:32:02;;;;;;;0.10;0.10;;;13.30;99.90;;;;;;5006049;28;20508;-84
2021/04/29 12:34:28;;;;;;;0.10;0.10;;;13.10;99.90;;;;;;5004978;28;20033;-84
2021/04/29 12:37:06;;;;;;;0.10;0.10;;;13.20;99.90;;;;;;5006187;28;20072;-84
2021/04/29 12:39:41;;;;;;;0.45;0.30;;;13.40;99.90;;;;;;5008546;28;20060;-84
2021/04/29 12:42:29;;;;;;;2.08;0.85;;;13.70;99.90;;;;;;5008017;28;20498;-83
2021/04/29 12:44:59;;;;;;;0.10;0.10;;;14.10;99.90;;;;;;5008686;28;20077;-83
2021/04/29 12:47:29;;;;;;;0.20;0.20;;;14.70;99.90;;;;;;5018952;28;20034;-84
2021/04/29 12:49:59;;;;;;;0.10;0.10;;;15.00;99.90;;;;;;5001095;28;20069;-84
2021/04/29 12:52:25;;;;;;;0.00;0.00;;;14.60;99.90;;;;;;4995634;28;20100;-86
2021/04/29 12:54:53;;;;;;;0.10;0.10;;;15.90;99.90;;;;;;4998100;28;20037;-86
2021/04/29 12:57:29;;;;;;;0.25;0.25;;;15.70;99.90;;;;;;4999807;28;20014;-86
2021/04/29 13:00:02;;;;;;;0.00;0.00;;;16.40;99.90;;;;;;4992369;28;20060;-87